sensor_id;sensor_type;location;lat;lon;timestamp;P1;durP1;ratioP1;P2;durP2;ratioP2
2912;SDS011;1466;48.778;9.166;2022-10-16T00:00:15;23.80;;;7.23;;
2912;SDS011;1466;48.778;9.166;2022-10-16T00:02:41;15.37;;;5.87;;
2912;SDS011;1466;48.778;9.166;2022-10-16T00:05:07;8.37;;;4.57;;
2912;SDS011;1466;48.778;9.166;2022-10-16T00:07:32;15.50;;;5.27;;
2912;SDS011;1466;48.778;9.166;2022-10-16T00:09:58;12.07;;;4.90;;
2912;SDS011;1466;48.778;9.166;2022-10-16T00:12:23;18.00;;;6.00;;
2912;SDS011;1466;48.778;9.166;2022-10-16T00:14:49;12.20;;;5.30;;
2912;SDS011;1466;48.778;9.166;2022-10-16T00:17:14;9.97;;;5.13;;
2912;SDS011;1466;48.778;9.166;2022-10-16T00:19:40;9.67;;;4.27;;
2912;SDS011;1466;48.778;9.166;2022-10-16T00:22:05;13.67;;;4.43;;
2912;SDS011;1466;48.778;9.166;2022-10-16T00:24:31;11.10;;;4.73;;
2912;SDS011;1466;48.778;9.166;2022-10-16T00:26:57;16.50;;;5.30;;
2912;SDS011;1466;48.778;9.166;2022-10-16T00:29:22;8.07;;;4.40;;
2912;SDS011;1466;48.778;9.166;2022-10-16T00:31:48;8.43;;;4.60;;
2912;SDS011;1466;48.778;9.166;2022-10-16T00:34:13;13.30;;;5.57;;
2912;SDS011;1466;48.778;9.166;2022-10-16T00:36:39;16.87;;;5.60;;
2912;SDS011;1466;48.778;9.166;2022-10-16T00:39:04;7.47;;;4.17;;
2912;SDS011;1466;48.778;9.166;2022-10-16T00:41:30;25.50;;;6.70;;
2912;SDS011;1466;48.778;9.166;2022-10-16T00:43:57;12.98;;;5.10;;
2912;SDS011;1466;48.778;9.166;2022-10-16T00:46:29;12.65;;;5.60;;
2912;SDS011;1466;48.778;9.166;2022-10-16T00:49:09;8.45;;;4.40;;
2912;SDS011;1466;48.778;9.166;2022-10-16T00:51:42;13.75;;;5.00;;
2912;SDS011;1466;48.778;9.166;2022-10-16T00:54:13;10.60;;;4.80;;
2912;SDS011;1466;48.778;9.166;2022-10-16T00:56:42;8.68;;;4.22;;
2912;SDS011;1466;48.778;9.166;2022-10-16T00:59:16;20.23;;;5.55;;
2912;SDS011;1466;48.778;9.166;2022-10-16T01:01:45;11.30;;;4.95;;
2912;SDS011;1466;48.778;9.166;2022-10-16T01:04:10;13.37;;;6.00;;
2912;SDS011;1466;48.778;9.166;2022-10-16T01:06:39;16.60;;;6.27;;
2912;SDS011;1466;48.778;9.166;2022-10-16T01:09:29;8.25;;;4.80;;
2912;SDS011;1466;48.778;9.166;2022-10-16T01:17:06;11.47;;;5.40;;
2912;SDS011;1466;48.778;9.166;2022-10-16T01:22:38;13.00;;;5.65;;
2912;SDS011;1466;48.778;9.166;2022-10-16T01:25:05;11.48;;;5.13;;
2912;SDS011;1466;48.778;9.166;2022-10-16T01:27:39;13.57;;;5.90;;
2912;SDS011;1466;48.778;9.166;2022-10-16T01:30:11;10.45;;;5.22;;
2912;SDS011;1466;48.778;9.166;2022-10-16T01:40:33;18.77;;;6.20;;
2912;SDS011;1466;48.778;9.166;2022-10-16T01:43:05;7.55;;;4.50;;
2912;SDS011;1466;48.778;9.166;2022-10-16T01:45:35;16.55;;;6.10;;
2912;SDS011;1466;48.778;9.166;2022-10-16T01:48:02;11.15;;;5.15;;
2912;SDS011;1466;48.778;9.166;2022-10-16T01:50:33;13.95;;;5.38;;
2912;SDS011;1466;48.778;9.166;2022-10-16T01:53:02;13.30;;;5.53;;
2912;SDS011;1466;48.778;9.166;2022-10-16T01:55:30;11.75;;;5.13;;
2912;SDS011;1466;48.778;9.166;2022-10-16T01:57:58;10.77;;;5.00;;
2912;SDS011;1466;48.778;9.166;2022-10-16T02:00:26;10.02;;;4.80;;
2912;SDS011;1466;48.778;9.166;2022-10-16T02:02:53;10.25;;;5.55;;
2912;SDS011;1466;48.778;9.166;2022-10-16T02:05:25;11.43;;;5.70;;
2912;SDS011;1466;48.778;9.166;2022-10-16T02:07:57;8.52;;;4.63;;
2912;SDS011;1466;48.778;9.166;2022-10-16T02:10:23;12.60;;;5.60;;
2912;SDS011;1466;48.778;9.166;2022-10-16T02:13:02;10.95;;;5.00;;
2912;SDS011;1466;48.778;9.166;2022-10-16T02:15:31;11.05;;;5.20;;
2912;SDS011;1466;48.778;9.166;2022-10-16T02:17:57;13.40;;;5.67;;
2912;SDS011;1466;48.778;9.166;2022-10-16T02:20:25;8.53;;;4.77;;
2912;SDS011;1466;48.778;9.166;2022-10-16T02:22:52;10.52;;;5.15;;
2912;SDS011;1466;48.778;9.166;2022-10-16T02:25:28;11.60;;;5.45;;
2912;SDS011;1466;48.778;9.166;2022-10-16T02:28:10;6.95;;;4.05;;
2912;SDS011;1466;48.778;9.166;2022-10-16T02:33:09;8.88;;;4.50;;
2912;SDS011;1466;48.778;9.166;2022-10-16T02:35:38;10.57;;;4.25;;
2912;SDS011;1466;48.778;9.166;2022-10-16T02:38:06;8.02;;;4.38;;
2912;SDS011;1466;48.778;9.166;2022-10-16T02:40:33;13.57;;;4.63;;
2912;SDS011;1466;48.778;9.166;2022-10-16T02:42:59;6.63;;;4.10;;
2912;SDS011;1466;48.778;9.166;2022-10-16T02:45:25;8.70;;;4.27;;
2912;SDS011;1466;48.778;9.166;2022-10-16T02:47:50;23.83;;;6.73;;
2912;SDS011;1466;48.778;9.166;2022-10-16T02:50:16;9.60;;;4.67;;
2912;SDS011;1466;48.778;9.166;2022-10-16T02:52:42;6.37;;;3.87;;
2912;SDS011;1466;48.778;9.166;2022-10-16T02:55:08;8.93;;;4.40;;
2912;SDS011;1466;48.778;9.166;2022-10-16T02:57:33;9.03;;;4.47;;
2912;SDS011;1466;48.778;9.166;2022-10-16T03:00:01;7.00;;;4.28;;
2912;SDS011;1466;48.778;9.166;2022-10-16T03:02:28;6.93;;;3.88;;
2912;SDS011;1466;48.778;9.166;2022-10-16T03:04:54;24.10;;;6.90;;
2912;SDS011;1466;48.778;9.166;2022-10-16T03:07:20;8.33;;;4.30;;
2912;SDS011;1466;48.778;9.166;2022-10-16T03:09:45;8.33;;;4.30;;
2912;SDS011;1466;48.778;9.166;2022-10-16T03:12:11;9.20;;;4.50;;
2912;SDS011;1466;48.778;9.166;2022-10-16T03:14:37;14.73;;;5.37;;
2912;SDS011;1466;48.778;9.166;2022-10-16T03:17:02;6.40;;;4.07;;
2912;SDS011;1466;48.778;9.166;2022-10-16T03:19:28;7.93;;;4.07;;
2912;SDS011;1466;48.778;9.166;2022-10-16T03:21:53;11.40;;;4.70;;
2912;SDS011;1466;48.778;9.166;2022-10-16T03:24:19;7.60;;;4.47;;
2912;SDS011;1466;48.778;9.166;2022-10-16T03:26:44;8.03;;;4.20;;
2912;SDS011;1466;48.778;9.166;2022-10-16T03:29:10;10.10;;;4.43;;
2912;SDS011;1466;48.778;9.166;2022-10-16T03:31:36;16.90;;;5.33;;
2912;SDS011;1466;48.778;9.166;2022-10-16T03:34:01;11.90;;;4.87;;
2912;SDS011;1466;48.778;9.166;2022-10-16T03:36:27;9.47;;;4.80;;
2912;SDS011;1466;48.778;9.166;2022-10-16T03:38:52;14.20;;;4.93;;
2912;SDS011;1466;48.778;9.166;2022-10-16T03:41:18;15.67;;;5.77;;
2912;SDS011;1466;48.778;9.166;2022-10-16T03:43:43;11.10;;;4.50;;
2912;SDS011;1466;48.778;9.166;2022-10-16T03:46:09;8.47;;;4.17;;
2912;SDS011;1466;48.778;9.166;2022-10-16T03:48:34;15.13;;;5.33;;
2912;SDS011;1466;48.778;9.166;2022-10-16T03:51:00;13.20;;;5.17;;
2912;SDS011;1466;48.778;9.166;2022-10-16T03:53:26;7.67;;;4.37;;
2912;SDS011;1466;48.778;9.166;2022-10-16T03:55:51;7.00;;;4.20;;
2912;SDS011;1466;48.778;9.166;2022-10-16T03:58:17;10.50;;;4.93;;
2912;SDS011;1466;48.778;9.166;2022-10-16T04:00:43;10.10;;;4.73;;
2912;SDS011;1466;48.778;9.166;2022-10-16T04:03:10;7.65;;;4.38;;
2912;SDS011;1466;48.778;9.166;2022-10-16T04:05:36;11.07;;;4.68;;
2912;SDS011;1466;48.778;9.166;2022-10-16T04:08:01;12.37;;;4.90;;
2912;SDS011;1466;48.778;9.166;2022-10-16T04:10:27;14.87;;;5.00;;
2912;SDS011;1466;48.778;9.166;2022-10-16T04:12:53;7.23;;;4.27;;
2912;SDS011;1466;48.778;9.166;2022-10-16T04:15:21;9.88;;;5.10;;
2912;SDS011;1466;48.778;9.166;2022-10-16T04:17:49;9.43;;;4.88;;
2912;SDS011;1466;48.778;9.166;2022-10-16T04:20:16;8.85;;;4.65;;
2912;SDS011;1466;48.778;9.166;2022-10-16T04:22:42;9.65;;;4.40;;
2912;SDS011;1466;48.778;9.166;2022-10-16T04:25:07;12.20;;;5.47;;
2912;SDS011;1466;48.778;9.166;2022-10-16T04:27:34;16.27;;;5.35;;
2912;SDS011;1466;48.778;9.166;2022-10-16T04:29:59;9.13;;;4.93;;
2912;SDS011;1466;48.778;9.166;2022-10-16T04:32:25;11.97;;;5.13;;
2912;SDS011;1466;48.778;9.166;2022-10-16T04:34:51;13.73;;;5.83;;
2912;SDS011;1466;48.778;9.166;2022-10-16T04:37:17;8.60;;;4.53;;
2912;SDS011;1466;48.778;9.166;2022-10-16T04:39:43;23.47;;;7.27;;
2912;SDS011;1466;48.778;9.166;2022-10-16T04:42:09;18.23;;;5.70;;
2912;SDS011;1466;48.778;9.166;2022-10-16T04:44:35;15.00;;;5.30;;
2912;SDS011;1466;48.778;9.166;2022-10-16T04:47:01;16.20;;;5.73;;
2912;SDS011;1466;48.778;9.166;2022-10-16T04:49:29;10.43;;;5.25;;
2912;SDS011;1466;48.778;9.166;2022-10-16T04:51:55;20.37;;;7.10;;
2912;SDS011;1466;48.778;9.166;2022-10-16T04:54:20;10.77;;;4.90;;
2912;SDS011;1466;48.778;9.166;2022-10-16T04:56:46;12.07;;;5.17;;
2912;SDS011;1466;48.778;9.166;2022-10-16T04:59:15;10.45;;;4.93;;
2912;SDS011;1466;48.778;9.166;2022-10-16T05:01:42;14.93;;;5.70;;
2912;SDS011;1466;48.778;9.166;2022-10-16T05:04:07;11.03;;;5.33;;
2912;SDS011;1466;48.778;9.166;2022-10-16T05:06:33;13.50;;;6.33;;
2912;SDS011;1466;48.778;9.166;2022-10-16T05:08:59;12.47;;;5.40;;
2912;SDS011;1466;48.778;9.166;2022-10-16T05:11:25;12.73;;;4.90;;
2912;SDS011;1466;48.778;9.166;2022-10-16T05:13:50;5.77;;;4.30;;
2912;SDS011;1466;48.778;9.166;2022-10-16T05:16:16;11.27;;;4.70;;
2912;SDS011;1466;48.778;9.166;2022-10-16T05:18:42;9.98;;;4.53;;
2912;SDS011;1466;48.778;9.166;2022-10-16T05:21:07;9.03;;;4.60;;
2912;SDS011;1466;48.778;9.166;2022-10-16T05:23:33;14.70;;;6.10;;
2912;SDS011;1466;48.778;9.166;2022-10-16T05:25:59;6.40;;;4.17;;
2912;SDS011;1466;48.778;9.166;2022-10-16T05:28:25;10.43;;;4.90;;
2912;SDS011;1466;48.778;9.166;2022-10-16T05:30:52;12.35;;;5.10;;
2912;SDS011;1466;48.778;9.166;2022-10-16T05:33:21;21.20;;;6.47;;
2912;SDS011;1466;48.778;9.166;2022-10-16T05:35:48;19.23;;;5.78;;
2912;SDS011;1466;48.778;9.166;2022-10-16T05:38:14;20.30;;;5.55;;
2912;SDS011;1466;48.778;9.166;2022-10-16T05:40:41;18.38;;;5.47;;
2912;SDS011;1466;48.778;9.166;2022-10-16T05:43:07;29.23;;;8.33;;
2912;SDS011;1466;48.778;9.166;2022-10-16T05:45:32;5.80;;;3.80;;
2912;SDS011;1466;48.778;9.166;2022-10-16T05:47:59;7.87;;;4.13;;
2912;SDS011;1466;48.778;9.166;2022-10-16T05:50:25;11.85;;;4.72;;
2912;SDS011;1466;48.778;9.166;2022-10-16T05:52:51;12.37;;;4.57;;
2912;SDS011;1466;48.778;9.166;2022-10-16T05:55:16;9.40;;;4.27;;
2912;SDS011;1466;48.778;9.166;2022-10-16T05:57:42;22.70;;;6.97;;
2912;SDS011;1466;48.778;9.166;2022-10-16T06:00:08;18.60;;;6.27;;
2912;SDS011;1466;48.778;9.166;2022-10-16T06:02:34;11.30;;;5.75;;
2912;SDS011;1466;48.778;9.166;2022-10-16T06:05:00;11.70;;;4.73;;
2912;SDS011;1466;48.778;9.166;2022-10-16T06:07:25;13.57;;;5.47;;
2912;SDS011;1466;48.778;9.166;2022-10-16T06:09:51;10.73;;;5.00;;
2912;SDS011;1466;48.778;9.166;2022-10-16T06:12:17;8.93;;;4.28;;
2912;SDS011;1466;48.778;9.166;2022-10-16T06:14:44;13.48;;;5.25;;
2912;SDS011;1466;48.778;9.166;2022-10-16T06:17:12;13.13;;;5.32;;
2912;SDS011;1466;48.778;9.166;2022-10-16T06:19:38;11.75;;;5.28;;
2912;SDS011;1466;48.778;9.166;2022-10-16T06:22:04;12.20;;;5.20;;
2912;SDS011;1466;48.778;9.166;2022-10-16T06:24:30;12.07;;;5.27;;
2912;SDS011;1466;48.778;9.166;2022-10-16T06:26:55;12.80;;;5.30;;
2912;SDS011;1466;48.778;9.166;2022-10-16T06:29:21;10.93;;;4.80;;
2912;SDS011;1466;48.778;9.166;2022-10-16T06:31:47;12.77;;;5.30;;
2912;SDS011;1466;48.778;9.166;2022-10-16T06:34:12;20.63;;;7.07;;
2912;SDS011;1466;48.778;9.166;2022-10-16T06:36:38;14.13;;;5.60;;
2912;SDS011;1466;48.778;9.166;2022-10-16T06:39:04;15.00;;;5.80;;
2912;SDS011;1466;48.778;9.166;2022-10-16T06:41:32;14.35;;;5.43;;
2912;SDS011;1466;48.778;9.166;2022-10-16T06:43:58;21.65;;;6.65;;
2912;SDS011;1466;48.778;9.166;2022-10-16T06:46:24;12.37;;;5.83;;
2912;SDS011;1466;48.778;9.166;2022-10-16T06:48:51;19.52;;;6.53;;
2912;SDS011;1466;48.778;9.166;2022-10-16T06:51:18;21.38;;;7.03;;
2912;SDS011;1466;48.778;9.166;2022-10-16T06:53:49;11.00;;;5.22;;
2912;SDS011;1466;48.778;9.166;2022-10-16T06:56:17;14.90;;;5.60;;
2912;SDS011;1466;48.778;9.166;2022-10-16T06:58:44;11.95;;;5.25;;
2912;SDS011;1466;48.778;9.166;2022-10-16T07:01:11;12.55;;;5.38;;
2912;SDS011;1466;48.778;9.166;2022-10-16T07:03:39;12.77;;;5.07;;
2912;SDS011;1466;48.778;9.166;2022-10-16T07:06:06;11.20;;;5.10;;
2912;SDS011;1466;48.778;9.166;2022-10-16T07:08:34;17.60;;;5.70;;
2912;SDS011;1466;48.778;9.166;2022-10-16T07:11:01;10.82;;;5.18;;
2912;SDS011;1466;48.778;9.166;2022-10-16T07:13:28;14.88;;;5.55;;
2912;SDS011;1466;48.778;9.166;2022-10-16T07:15:54;21.73;;;6.80;;
2912;SDS011;1466;48.778;9.166;2022-10-16T07:18:20;9.37;;;5.00;;
2912;SDS011;1466;48.778;9.166;2022-10-16T07:20:46;13.52;;;5.40;;
2912;SDS011;1466;48.778;9.166;2022-10-16T07:23:12;12.23;;;5.30;;
2912;SDS011;1466;48.778;9.166;2022-10-16T07:25:37;14.20;;;5.23;;
2912;SDS011;1466;48.778;9.166;2022-10-16T07:28:03;14.13;;;5.30;;
2912;SDS011;1466;48.778;9.166;2022-10-16T07:30:29;21.00;;;5.30;;
2912;SDS011;1466;48.778;9.166;2022-10-16T07:32:54;10.03;;;5.27;;
2912;SDS011;1466;48.778;9.166;2022-10-16T07:35:20;11.70;;;5.20;;
2912;SDS011;1466;48.778;9.166;2022-10-16T07:37:46;9.47;;;4.33;;
2912;SDS011;1466;48.778;9.166;2022-10-16T07:40:11;13.67;;;5.83;;
2912;SDS011;1466;48.778;9.166;2022-10-16T07:42:37;8.23;;;4.73;;
2912;SDS011;1466;48.778;9.166;2022-10-16T07:45:03;15.83;;;5.90;;
2912;SDS011;1466;48.778;9.166;2022-10-16T07:47:29;8.95;;;4.57;;
2912;SDS011;1466;48.778;9.166;2022-10-16T07:49:54;9.17;;;4.27;;
2912;SDS011;1466;48.778;9.166;2022-10-16T07:52:20;12.90;;;5.17;;
2912;SDS011;1466;48.778;9.166;2022-10-16T07:54:45;14.70;;;4.93;;
2912;SDS011;1466;48.778;9.166;2022-10-16T07:57:11;20.07;;;6.13;;
2912;SDS011;1466;48.778;9.166;2022-10-16T07:59:43;13.77;;;5.18;;
2912;SDS011;1466;48.778;9.166;2022-10-16T08:02:09;9.97;;;4.87;;
2912;SDS011;1466;48.778;9.166;2022-10-16T08:04:34;10.67;;;4.53;;
2912;SDS011;1466;48.778;9.166;2022-10-16T08:07:00;14.50;;;5.53;;
2912;SDS011;1466;48.778;9.166;2022-10-16T08:09:25;10.00;;;5.23;;
2912;SDS011;1466;48.778;9.166;2022-10-16T08:11:53;14.37;;;5.77;;
2912;SDS011;1466;48.778;9.166;2022-10-16T08:14:19;14.43;;;6.60;;
2912;SDS011;1466;48.778;9.166;2022-10-16T08:16:45;11.40;;;5.43;;
2912;SDS011;1466;48.778;9.166;2022-10-16T08:19:10;9.07;;;4.90;;
2912;SDS011;1466;48.778;9.166;2022-10-16T08:21:36;15.53;;;5.70;;
2912;SDS011;1466;48.778;9.166;2022-10-16T08:24:01;5.83;;;4.00;;
2912;SDS011;1466;48.778;9.166;2022-10-16T08:26:27;11.50;;;5.63;;
2912;SDS011;1466;48.778;9.166;2022-10-16T08:28:53;8.90;;;4.50;;
2912;SDS011;1466;48.778;9.166;2022-10-16T08:31:19;6.53;;;4.47;;
2912;SDS011;1466;48.778;9.166;2022-10-16T08:33:45;14.57;;;5.13;;
2912;SDS011;1466;48.778;9.166;2022-10-16T08:36:12;9.70;;;4.80;;
2912;SDS011;1466;48.778;9.166;2022-10-16T08:38:38;8.00;;;4.73;;
2912;SDS011;1466;48.778;9.166;2022-10-16T08:48:56;12.10;;;5.10;;
2912;SDS011;1466;48.778;9.166;2022-10-16T08:51:25;10.03;;;5.60;;
2912;SDS011;1466;48.778;9.166;2022-10-16T08:53:57;13.55;;;5.35;;
2912;SDS011;1466;48.778;9.166;2022-10-16T08:56:28;14.33;;;5.73;;
2912;SDS011;1466;48.778;9.166;2022-10-16T08:58:53;9.00;;;4.90;;
2912;SDS011;1466;48.778;9.166;2022-10-16T09:01:20;11.27;;;5.55;;
2912;SDS011;1466;48.778;9.166;2022-10-16T09:06:29;7.30;;;4.20;;
2912;SDS011;1466;48.778;9.166;2022-10-16T09:12:31;13.98;;;5.78;;
2912;SDS011;1466;48.778;9.166;2022-10-16T09:20:42;7.17;;;4.80;;
2912;SDS011;1466;48.778;9.166;2022-10-16T09:23:16;9.73;;;4.87;;
2912;SDS011;1466;48.778;9.166;2022-10-16T09:25:44;13.15;;;6.90;;
2912;SDS011;1466;48.778;9.166;2022-10-16T09:28:14;20.65;;;7.03;;
2912;SDS011;1466;48.778;9.166;2022-10-16T09:30:41;9.20;;;5.00;;
2912;SDS011;1466;48.778;9.166;2022-10-16T09:33:07;12.97;;;5.17;;
2912;SDS011;1466;48.778;9.166;2022-10-16T09:35:39;11.80;;;5.72;;
2912;SDS011;1466;48.778;9.166;2022-10-16T09:38:24;7.93;;;4.57;;
2912;SDS011;1466;48.778;9.166;2022-10-16T09:40:52;10.50;;;5.10;;
2912;SDS011;1466;48.778;9.166;2022-10-16T09:43:22;13.17;;;5.50;;
2912;SDS011;1466;48.778;9.166;2022-10-16T09:48:50;13.05;;;5.20;;
2912;SDS011;1466;48.778;9.166;2022-10-16T09:51:27;9.47;;;5.07;;
2912;SDS011;1466;48.778;9.166;2022-10-16T09:54:00;13.50;;;6.10;;
2912;SDS011;1466;48.778;9.166;2022-10-16T09:56:28;10.33;;;5.03;;
2912;SDS011;1466;48.778;9.166;2022-10-16T09:58:57;11.30;;;4.90;;
2912;SDS011;1466;48.778;9.166;2022-10-16T10:01:52;21.33;;;6.90;;
2912;SDS011;1466;48.778;9.166;2022-10-16T10:04:20;6.57;;;4.30;;
2912;SDS011;1466;48.778;9.166;2022-10-16T10:06:52;14.65;;;5.93;;
2912;SDS011;1466;48.778;9.166;2022-10-16T10:09:23;13.13;;;6.03;;
2912;SDS011;1466;48.778;9.166;2022-10-16T10:14:28;11.67;;;5.90;;
2912;SDS011;1466;48.778;9.166;2022-10-16T10:19:29;12.87;;;7.43;;
2912;SDS011;1466;48.778;9.166;2022-10-16T10:22:10;12.60;;;5.70;;
2912;SDS011;1466;48.778;9.166;2022-10-16T10:24:41;13.33;;;5.57;;
2912;SDS011;1466;48.778;9.166;2022-10-16T10:27:10;14.75;;;6.35;;
2912;SDS011;1466;48.778;9.166;2022-10-16T10:29:45;8.27;;;4.50;;
2912;SDS011;1466;48.778;9.166;2022-10-16T10:35:34;13.70;;;6.03;;
2912;SDS011;1466;48.778;9.166;2022-10-16T10:43:43;9.37;;;5.63;;
2912;SDS011;1466;48.778;9.166;2022-10-16T10:54:16;27.30;;;8.23;;
2912;SDS011;1466;48.778;9.166;2022-10-16T10:57:06;16.00;;;6.73;;
2912;SDS011;1466;48.778;9.166;2022-10-16T10:59:48;12.60;;;5.77;;
2912;SDS011;1466;48.778;9.166;2022-10-16T11:05:27;17.43;;;7.17;;
2912;SDS011;1466;48.778;9.166;2022-10-16T11:07:57;9.90;;;5.50;;
2912;SDS011;1466;48.778;9.166;2022-10-16T11:13:38;18.87;;;6.50;;
2912;SDS011;1466;48.778;9.166;2022-10-16T11:16:19;16.63;;;6.50;;
2912;SDS011;1466;48.778;9.166;2022-10-16T11:21:20;15.30;;;6.47;;
2912;SDS011;1466;48.778;9.166;2022-10-16T11:24:01;8.93;;;5.07;;
2912;SDS011;1466;48.778;9.166;2022-10-16T11:26:35;11.93;;;5.87;;
2912;SDS011;1466;48.778;9.166;2022-10-16T11:29:08;13.70;;;5.90;;
2912;SDS011;1466;48.778;9.166;2022-10-16T11:31:43;7.43;;;4.90;;
2912;SDS011;1466;48.778;9.166;2022-10-16T11:34:34;24.37;;;6.50;;
2912;SDS011;1466;48.778;9.166;2022-10-16T11:39:56;12.97;;;6.00;;
2912;SDS011;1466;48.778;9.166;2022-10-16T11:42:32;12.10;;;4.70;;
2912;SDS011;1466;48.778;9.166;2022-10-16T11:45:26;13.70;;;5.70;;
2912;SDS011;1466;48.778;9.166;2022-10-16T11:55:57;14.90;;;5.70;;
2912;SDS011;1466;48.778;9.166;2022-10-16T11:58:56;12.03;;;6.00;;
2912;SDS011;1466;48.778;9.166;2022-10-16T12:07:12;11.87;;;5.90;;
2912;SDS011;1466;48.778;9.166;2022-10-16T12:09:49;19.43;;;6.80;;
2912;SDS011;1466;48.778;9.166;2022-10-16T12:12:56;16.90;;;6.83;;
2912;SDS011;1466;48.778;9.166;2022-10-16T12:17:47;23.33;;;6.43;;
2912;SDS011;1466;48.778;9.166;2022-10-16T12:22:57;21.67;;;7.07;;
2912;SDS011;1466;48.778;9.166;2022-10-16T12:28:20;11.93;;;6.10;;
2912;SDS011;1466;48.778;9.166;2022-10-16T12:31:06;19.03;;;7.43;;
2912;SDS011;1466;48.778;9.166;2022-10-16T12:33:35;21.13;;;6.50;;
2912;SDS011;1466;48.778;9.166;2022-10-16T12:36:13;27.50;;;8.70;;
2912;SDS011;1466;48.778;9.166;2022-10-16T12:39:04;16.47;;;6.50;;
2912;SDS011;1466;48.778;9.166;2022-10-16T12:41:34;16.93;;;6.20;;
2912;SDS011;1466;48.778;9.166;2022-10-16T12:44:03;23.60;;;7.80;;
2912;SDS011;1466;48.778;9.166;2022-10-16T12:49:04;13.43;;;6.40;;
2912;SDS011;1466;48.778;9.166;2022-10-16T12:51:39;16.87;;;6.57;;
2912;SDS011;1466;48.778;9.166;2022-10-16T13:02:23;20.60;;;7.13;;
2912;SDS011;1466;48.778;9.166;2022-10-16T13:05:11;17.27;;;6.57;;
2912;SDS011;1466;48.778;9.166;2022-10-16T13:10:31;11.97;;;6.00;;
2912;SDS011;1466;48.778;9.166;2022-10-16T13:13:16;19.60;;;6.50;;
2912;SDS011;1466;48.778;9.166;2022-10-16T13:18:51;22.20;;;6.87;;
2912;SDS011;1466;48.778;9.166;2022-10-16T13:29:19;18.00;;;6.60;;
2912;SDS011;1466;48.778;9.166;2022-10-16T13:31:45;24.73;;;7.10;;
2912;SDS011;1466;48.778;9.166;2022-10-16T13:34:16;12.90;;;5.97;;
2912;SDS011;1466;48.778;9.166;2022-10-16T13:36:47;12.60;;;6.37;;
2912;SDS011;1466;48.778;9.166;2022-10-16T13:44:25;12.07;;;6.27;;
2912;SDS011;1466;48.778;9.166;2022-10-16T13:46:58;27.83;;;8.43;;
2912;SDS011;1466;48.778;9.166;2022-10-16T13:49:25;20.17;;;6.60;;
2912;SDS011;1466;48.778;9.166;2022-10-16T13:52:00;8.67;;;5.23;;
2912;SDS011;1466;48.778;9.166;2022-10-16T13:54:26;14.77;;;6.43;;
2912;SDS011;1466;48.778;9.166;2022-10-16T13:56:53;14.13;;;6.20;;
2912;SDS011;1466;48.778;9.166;2022-10-16T14:01:48;20.73;;;7.93;;
2912;SDS011;1466;48.778;9.166;2022-10-16T14:04:15;17.23;;;7.30;;
2912;SDS011;1466;48.778;9.166;2022-10-16T14:06:42;18.07;;;6.67;;
2912;SDS011;1466;48.778;9.166;2022-10-16T14:09:27;9.27;;;5.27;;
2912;SDS011;1466;48.778;9.166;2022-10-16T14:12:01;17.13;;;5.70;;
2912;SDS011;1466;48.778;9.166;2022-10-16T14:14:31;13.27;;;5.83;;
2912;SDS011;1466;48.778;9.166;2022-10-16T14:17:04;11.90;;;6.17;;
2912;SDS011;1466;48.778;9.166;2022-10-16T14:19:29;12.57;;;5.70;;
2912;SDS011;1466;48.778;9.166;2022-10-16T14:21:56;14.40;;;6.57;;
2912;SDS011;1466;48.778;9.166;2022-10-16T14:26:54;13.60;;;6.00;;
2912;SDS011;1466;48.778;9.166;2022-10-16T14:29:21;21.10;;;7.43;;
2912;SDS011;1466;48.778;9.166;2022-10-16T14:31:58;29.63;;;8.30;;
2912;SDS011;1466;48.778;9.166;2022-10-16T14:34:30;19.60;;;7.33;;
2912;SDS011;1466;48.778;9.166;2022-10-16T14:36:58;26.17;;;8.30;;
2912;SDS011;1466;48.778;9.166;2022-10-16T14:39:40;15.90;;;6.70;;
2912;SDS011;1466;48.778;9.166;2022-10-16T14:42:14;13.10;;;6.10;;
2912;SDS011;1466;48.778;9.166;2022-10-16T14:44:42;23.97;;;8.50;;
2912;SDS011;1466;48.778;9.166;2022-10-16T14:47:09;13.53;;;6.63;;
2912;SDS011;1466;48.778;9.166;2022-10-16T14:49:38;21.83;;;7.17;;
2912;SDS011;1466;48.778;9.166;2022-10-16T14:52:10;19.70;;;7.30;;
2912;SDS011;1466;48.778;9.166;2022-10-16T14:54:36;17.90;;;6.67;;
2912;SDS011;1466;48.778;9.166;2022-10-16T14:57:02;17.90;;;7.63;;
2912;SDS011;1466;48.778;9.166;2022-10-16T14:59:33;24.20;;;8.37;;
2912;SDS011;1466;48.778;9.166;2022-10-16T15:04:45;25.43;;;8.07;;
2912;SDS011;1466;48.778;9.166;2022-10-16T15:07:11;20.63;;;7.97;;
2912;SDS011;1466;48.778;9.166;2022-10-16T15:09:37;17.33;;;6.53;;
2912;SDS011;1466;48.778;9.166;2022-10-16T15:12:03;25.30;;;8.17;;
2912;SDS011;1466;48.778;9.166;2022-10-16T15:14:28;26.10;;;8.57;;
2912;SDS011;1466;48.778;9.166;2022-10-16T15:16:54;15.63;;;6.53;;
2912;SDS011;1466;48.778;9.166;2022-10-16T15:19:19;20.43;;;7.43;;
2912;SDS011;1466;48.778;9.166;2022-10-16T15:21:45;15.97;;;6.53;;
2912;SDS011;1466;48.778;9.166;2022-10-16T15:24:11;21.20;;;8.07;;
2912;SDS011;1466;48.778;9.166;2022-10-16T15:26:38;22.47;;;8.00;;
2912;SDS011;1466;48.778;9.166;2022-10-16T15:29:04;18.90;;;7.40;;
2912;SDS011;1466;48.778;9.166;2022-10-16T15:31:29;21.83;;;8.03;;
2912;SDS011;1466;48.778;9.166;2022-10-16T15:33:55;18.88;;;7.68;;
2912;SDS011;1466;48.778;9.166;2022-10-16T15:36:33;19.07;;;7.43;;
2912;SDS011;1466;48.778;9.166;2022-10-16T15:39:02;20.30;;;7.57;;
2912;SDS011;1466;48.778;9.166;2022-10-16T15:41:28;20.53;;;8.70;;
2912;SDS011;1466;48.778;9.166;2022-10-16T15:43:54;16.20;;;6.63;;
2912;SDS011;1466;48.778;9.166;2022-10-16T15:46:20;15.20;;;6.87;;
2912;SDS011;1466;48.778;9.166;2022-10-16T15:48:47;16.53;;;7.30;;
2912;SDS011;1466;48.778;9.166;2022-10-16T15:51:14;25.00;;;8.20;;
2912;SDS011;1466;48.778;9.166;2022-10-16T15:53:41;20.77;;;7.83;;
2912;SDS011;1466;48.778;9.166;2022-10-16T15:56:07;18.63;;;7.47;;
2912;SDS011;1466;48.778;9.166;2022-10-16T15:58:34;14.80;;;7.13;;
2912;SDS011;1466;48.778;9.166;2022-10-16T16:01:00;15.30;;;6.50;;
2912;SDS011;1466;48.778;9.166;2022-10-16T16:03:28;27.67;;;8.70;;
2912;SDS011;1466;48.778;9.166;2022-10-16T16:05:54;22.47;;;8.17;;
2912;SDS011;1466;48.778;9.166;2022-10-16T16:08:20;19.87;;;9.40;;
2912;SDS011;1466;48.778;9.166;2022-10-16T16:10:56;21.10;;;6.73;;
2912;SDS011;1466;48.778;9.166;2022-10-16T16:13:26;18.30;;;6.97;;
2912;SDS011;1466;48.778;9.166;2022-10-16T16:15:52;22.10;;;7.63;;
2912;SDS011;1466;48.778;9.166;2022-10-16T16:18:17;19.00;;;7.33;;
2912;SDS011;1466;48.778;9.166;2022-10-16T16:20:43;22.60;;;9.10;;
2912;SDS011;1466;48.778;9.166;2022-10-16T16:23:08;15.07;;;7.67;;
2912;SDS011;1466;48.778;9.166;2022-10-16T16:25:34;20.90;;;7.93;;
2912;SDS011;1466;48.778;9.166;2022-10-16T16:28:00;26.13;;;8.43;;
2912;SDS011;1466;48.778;9.166;2022-10-16T16:30:25;21.17;;;9.40;;
2912;SDS011;1466;48.778;9.166;2022-10-16T16:32:51;17.97;;;8.73;;
2912;SDS011;1466;48.778;9.166;2022-10-16T16:35:17;20.40;;;8.60;;
2912;SDS011;1466;48.778;9.166;2022-10-16T16:37:42;26.20;;;11.00;;
2912;SDS011;1466;48.778;9.166;2022-10-16T16:40:08;21.27;;;8.70;;
2912;SDS011;1466;48.778;9.166;2022-10-16T16:42:33;17.83;;;8.50;;
2912;SDS011;1466;48.778;9.166;2022-10-16T16:44:59;19.80;;;8.80;;
2912;SDS011;1466;48.778;9.166;2022-10-16T16:47:24;23.80;;;9.27;;
2912;SDS011;1466;48.778;9.166;2022-10-16T16:49:50;26.37;;;9.60;;
2912;SDS011;1466;48.778;9.166;2022-10-16T16:52:16;25.07;;;9.00;;
2912;SDS011;1466;48.778;9.166;2022-10-16T16:54:42;26.80;;;9.73;;
2912;SDS011;1466;48.778;9.166;2022-10-16T16:57:09;27.27;;;10.50;;
2912;SDS011;1466;48.778;9.166;2022-10-16T16:59:35;23.83;;;10.77;;
2912;SDS011;1466;48.778;9.166;2022-10-16T17:02:00;29.00;;;10.23;;
2912;SDS011;1466;48.778;9.166;2022-10-16T17:04:26;36.80;;;12.07;;
2912;SDS011;1466;48.778;9.166;2022-10-16T17:06:53;24.87;;;10.07;;
2912;SDS011;1466;48.778;9.166;2022-10-16T17:09:19;21.60;;;9.27;;
2912;SDS011;1466;48.778;9.166;2022-10-16T17:11:45;27.70;;;9.53;;
2912;SDS011;1466;48.778;9.166;2022-10-16T17:14:13;29.00;;;11.23;;
2912;SDS011;1466;48.778;9.166;2022-10-16T17:16:39;19.57;;;10.20;;
2912;SDS011;1466;48.778;9.166;2022-10-16T17:19:10;35.90;;;11.10;;
2912;SDS011;1466;48.778;9.166;2022-10-16T17:21:37;28.80;;;10.70;;
2912;SDS011;1466;48.778;9.166;2022-10-16T17:24:03;25.23;;;10.67;;